sensor_id;sensor_type;location;lat;lon;timestamp;P1;durP1;ratioP1;P2;durP2;ratioP2
37199;SDS011;23096;50.892;16.746;2023-12-07T00:00:19;216.90;;;102.50;;
37199;SDS011;23096;50.892;16.746;2023-12-07T00:02:46;211.20;;;106.10;;
37199;SDS011;23096;50.892;16.746;2023-12-07T00:05:11;209.90;;;102.70;;
37199;SDS011;23096;50.892;16.746;2023-12-07T00:07:37;227.50;;;106.80;;
37199;SDS011;23096;50.892;16.746;2023-12-07T00:10:02;211.00;;;99.10;;
37199;SDS011;23096;50.892;16.746;2023-12-07T00:12:28;208.30;;;100.00;;
37199;SDS011;23096;50.892;16.746;2023-12-07T00:14:53;221.20;;;103.50;;
37199;SDS011;23096;50.892;16.746;2023-12-07T00:17:19;217.20;;;103.00;;
37199;SDS011;23096;50.892;16.746;2023-12-07T00:19:44;216.20;;;104.70;;
37199;SDS011;23096;50.892;16.746;2023-12-07T00:22:10;237.20;;;109.80;;
37199;SDS011;23096;50.892;16.746;2023-12-07T00:24:35;229.10;;;107.00;;
37199;SDS011;23096;50.892;16.746;2023-12-07T00:27:01;210.40;;;103.70;;
37199;SDS011;23096;50.892;16.746;2023-12-07T00:29:26;222.60;;;104.90;;
37199;SDS011;23096;50.892;16.746;2023-12-07T00:31:52;215.60;;;101.90;;
37199;SDS011;23096;50.892;16.746;2023-12-07T00:34:17;216.90;;;105.30;;
37199;SDS011;23096;50.892;16.746;2023-12-07T00:36:43;218.80;;;105.40;;
37199;SDS011;23096;50.892;16.746;2023-12-07T00:39:09;220.50;;;105.90;;
37199;SDS011;23096;50.892;16.746;2023-12-07T00:41:34;218.90;;;105.70;;
37199;SDS011;23096;50.892;16.746;2023-12-07T00:44:00;208.90;;;101.00;;
37199;SDS011;23096;50.892;16.746;2023-12-07T00:46:25;207.10;;;97.80;;
37199;SDS011;23096;50.892;16.746;2023-12-07T00:48:51;196.00;;;95.50;;
37199;SDS011;23096;50.892;16.746;2023-12-07T00:51:16;207.90;;;101.10;;
37199;SDS011;23096;50.892;16.746;2023-12-07T00:53:42;221.70;;;101.90;;
37199;SDS011;23096;50.892;16.746;2023-12-07T00:56:07;203.90;;;96.60;;
37199;SDS011;23096;50.892;16.746;2023-12-07T00:58:33;204.20;;;98.80;;
37199;SDS011;23096;50.892;16.746;2023-12-07T01:00:59;209.20;;;97.90;;
37199;SDS011;23096;50.892;16.746;2023-12-07T01:03:25;198.20;;;93.30;;
37199;SDS011;23096;50.892;16.746;2023-12-07T01:05:50;194.70;;;91.60;;
37199;SDS011;23096;50.892;16.746;2023-12-07T01:08:16;210.00;;;102.50;;
37199;SDS011;23096;50.892;16.746;2023-12-07T01:10:41;214.10;;;105.30;;
37199;SDS011;23096;50.892;16.746;2023-12-07T01:13:07;218.80;;;100.30;;
37199;SDS011;23096;50.892;16.746;2023-12-07T01:15:32;224.20;;;107.40;;
37199;SDS011;23096;50.892;16.746;2023-12-07T01:17:57;210.70;;;98.50;;
37199;SDS011;23096;50.892;16.746;2023-12-07T01:20:23;216.20;;;102.70;;
37199;SDS011;23096;50.892;16.746;2023-12-07T01:22:48;202.10;;;95.10;;
37199;SDS011;23096;50.892;16.746;2023-12-07T01:25:14;219.90;;;101.70;;
37199;SDS011;23096;50.892;16.746;2023-12-07T01:27:45;203.10;;;100.80;;
37199;SDS011;23096;50.892;16.746;2023-12-07T01:30:10;212.90;;;104.10;;
37199;SDS011;23096;50.892;16.746;2023-12-07T01:32:36;216.70;;;97.70;;
37199;SDS011;23096;50.892;16.746;2023-12-07T01:35:01;203.00;;;98.00;;
37199;SDS011;23096;50.892;16.746;2023-12-07T01:37:29;189.70;;;93.90;;
37199;SDS011;23096;50.892;16.746;2023-12-07T01:39:56;179.10;;;85.50;;
37199;SDS011;23096;50.892;16.746;2023-12-07T01:42:22;212.90;;;99.00;;
37199;SDS011;23096;50.892;16.746;2023-12-07T01:44:49;206.80;;;97.80;;
37199;SDS011;23096;50.892;16.746;2023-12-07T01:47:14;210.00;;;100.70;;
37199;SDS011;23096;50.892;16.746;2023-12-07T01:49:40;217.50;;;102.00;;
37199;SDS011;23096;50.892;16.746;2023-12-07T01:52:09;190.20;;;89.50;;
37199;SDS011;23096;50.892;16.746;2023-12-07T01:54:36;191.70;;;90.50;;
37199;SDS011;23096;50.892;16.746;2023-12-07T01:57:02;216.00;;;98.40;;
37199;SDS011;23096;50.892;16.746;2023-12-07T01:59:31;181.80;;;89.40;;
37199;SDS011;23096;50.892;16.746;2023-12-07T02:01:58;180.50;;;89.40;;
37199;SDS011;23096;50.892;16.746;2023-12-07T02:04:24;178.00;;;87.80;;
37199;SDS011;23096;50.892;16.746;2023-12-07T02:06:49;215.50;;;98.30;;
37199;SDS011;23096;50.892;16.746;2023-12-07T02:09:15;188.10;;;88.40;;
37199;SDS011;23096;50.892;16.746;2023-12-07T02:11:41;177.20;;;83.10;;
37199;SDS011;23096;50.892;16.746;2023-12-07T02:14:07;193.50;;;91.20;;
37199;SDS011;23096;50.892;16.746;2023-12-07T02:16:39;194.40;;;94.60;;
37199;SDS011;23096;50.892;16.746;2023-12-07T02:19:31;189.40;;;90.30;;
37199;SDS011;23096;50.892;16.746;2023-12-07T02:22:16;184.20;;;90.00;;
37199;SDS011;23096;50.892;16.746;2023-12-07T02:24:59;188.80;;;90.50;;
37199;SDS011;23096;50.892;16.746;2023-12-07T02:27:40;189.80;;;88.80;;
37199;SDS011;23096;50.892;16.746;2023-12-07T02:30:12;165.90;;;80.00;;
37199;SDS011;23096;50.892;16.746;2023-12-07T02:32:39;130.50;;;65.30;;
37199;SDS011;23096;50.892;16.746;2023-12-07T02:35:06;159.20;;;76.40;;
37199;SDS011;23096;50.892;16.746;2023-12-07T02:37:33;129.10;;;65.90;;
37199;SDS011;23096;50.892;16.746;2023-12-07T02:40:06;104.30;;;52.60;;
37199;SDS011;23096;50.892;16.746;2023-12-07T02:42:39;110.10;;;56.00;;
37199;SDS011;23096;50.892;16.746;2023-12-07T02:45:06;105.70;;;50.80;;
37199;SDS011;23096;50.892;16.746;2023-12-07T02:47:33;105.60;;;54.30;;
37199;SDS011;23096;50.892;16.746;2023-12-07T02:49:59;100.10;;;49.90;;
37199;SDS011;23096;50.892;16.746;2023-12-07T02:52:25;103.40;;;51.80;;
37199;SDS011;23096;50.892;16.746;2023-12-07T02:54:50;102.50;;;51.50;;
37199;SDS011;23096;50.892;16.746;2023-12-07T02:57:16;89.60;;;46.40;;
37199;SDS011;23096;50.892;16.746;2023-12-07T02:59:41;96.90;;;48.90;;
37199;SDS011;23096;50.892;16.746;2023-12-07T03:02:07;83.20;;;45.10;;
37199;SDS011;23096;50.892;16.746;2023-12-07T03:04:33;92.40;;;47.80;;
37199;SDS011;23096;50.892;16.746;2023-12-07T03:06:58;85.10;;;44.20;;
37199;SDS011;23096;50.892;16.746;2023-12-07T03:09:24;87.80;;;46.40;;
37199;SDS011;23096;50.892;16.746;2023-12-07T03:11:50;86.90;;;47.30;;
37199;SDS011;23096;50.892;16.746;2023-12-07T03:14:16;90.90;;;46.00;;
37199;SDS011;23096;50.892;16.746;2023-12-07T03:16:41;84.80;;;44.40;;
37199;SDS011;23096;50.892;16.746;2023-12-07T03:19:07;86.70;;;45.60;;
37199;SDS011;23096;50.892;16.746;2023-12-07T03:21:32;85.00;;;45.20;;
37199;SDS011;23096;50.892;16.746;2023-12-07T03:23:57;81.50;;;42.30;;
37199;SDS011;23096;50.892;16.746;2023-12-07T03:26:23;86.50;;;44.20;;
37199;SDS011;23096;50.892;16.746;2023-12-07T03:28:48;82.00;;;44.50;;
37199;SDS011;23096;50.892;16.746;2023-12-07T03:31:14;96.60;;;47.00;;
37199;SDS011;23096;50.892;16.746;2023-12-07T03:33:41;83.40;;;46.30;;
37199;SDS011;23096;50.892;16.746;2023-12-07T03:36:07;87.70;;;46.90;;
37199;SDS011;23096;50.892;16.746;2023-12-07T03:38:36;95.80;;;48.40;;
37199;SDS011;23096;50.892;16.746;2023-12-07T03:41:01;100.80;;;47.90;;
37199;SDS011;23096;50.892;16.746;2023-12-07T03:43:27;93.10;;;48.00;;
37199;SDS011;23096;50.892;16.746;2023-12-07T03:45:52;104.30;;;50.10;;
37199;SDS011;23096;50.892;16.746;2023-12-07T03:48:18;109.70;;;52.90;;
37199;SDS011;23096;50.892;16.746;2023-12-07T03:50:43;95.00;;;48.30;;
37199;SDS011;23096;50.892;16.746;2023-12-07T03:53:09;99.80;;;52.20;;
37199;SDS011;23096;50.892;16.746;2023-12-07T03:55:34;100.00;;;49.80;;
37199;SDS011;23096;50.892;16.746;2023-12-07T03:58:02;108.80;;;52.10;;
37199;SDS011;23096;50.892;16.746;2023-12-07T04:00:27;112.00;;;56.80;;
37199;SDS011;23096;50.892;16.746;2023-12-07T04:02:53;105.20;;;51.00;;
37199;SDS011;23096;50.892;16.746;2023-12-07T04:05:18;117.40;;;54.50;;
37199;SDS011;23096;50.892;16.746;2023-12-07T04:07:44;139.70;;;62.20;;
37199;SDS011;23096;50.892;16.746;2023-12-07T04:10:09;113.70;;;56.90;;
37199;SDS011;23096;50.892;16.746;2023-12-07T04:12:35;106.90;;;53.40;;
37199;SDS011;23096;50.892;16.746;2023-12-07T04:15:01;110.80;;;51.60;;
37199;SDS011;23096;50.892;16.746;2023-12-07T04:17:27;108.00;;;53.10;;
37199;SDS011;23096;50.892;16.746;2023-12-07T04:19:53;98.30;;;49.00;;
37199;SDS011;23096;50.892;16.746;2023-12-07T04:22:19;105.10;;;49.80;;
37199;SDS011;23096;50.892;16.746;2023-12-07T04:24:44;96.20;;;47.30;;
37199;SDS011;23096;50.892;16.746;2023-12-07T04:27:10;97.80;;;46.90;;
37199;SDS011;23096;50.892;16.746;2023-12-07T04:29:35;90.10;;;47.50;;
37199;SDS011;23096;50.892;16.746;2023-12-07T04:32:01;92.30;;;46.80;;
37199;SDS011;23096;50.892;16.746;2023-12-07T04:34:27;98.60;;;47.90;;
37199;SDS011;23096;50.892;16.746;2023-12-07T04:36:53;91.60;;;45.50;;
37199;SDS011;23096;50.892;16.746;2023-12-07T04:39:18;92.20;;;44.80;;
37199;SDS011;23096;50.892;16.746;2023-12-07T04:41:43;81.60;;;42.00;;
37199;SDS011;23096;50.892;16.746;2023-12-07T04:44:09;79.60;;;41.50;;
37199;SDS011;23096;50.892;16.746;2023-12-07T04:46:35;89.80;;;42.20;;
37199;SDS011;23096;50.892;16.746;2023-12-07T04:49:01;86.40;;;42.60;;
37199;SDS011;23096;50.892;16.746;2023-12-07T04:51:26;85.30;;;39.50;;
37199;SDS011;23096;50.892;16.746;2023-12-07T04:53:52;84.00;;;42.90;;
37199;SDS011;23096;50.892;16.746;2023-12-07T04:56:17;83.20;;;43.00;;
37199;SDS011;23096;50.892;16.746;2023-12-07T04:58:43;76.60;;;41.00;;
37199;SDS011;23096;50.892;16.746;2023-12-07T05:01:09;86.10;;;42.40;;
37199;SDS011;23096;50.892;16.746;2023-12-07T05:03:35;87.40;;;44.20;;
37199;SDS011;23096;50.892;16.746;2023-12-07T05:06:00;85.00;;;42.00;;
37199;SDS011;23096;50.892;16.746;2023-12-07T05:08:26;81.90;;;42.10;;
37199;SDS011;23096;50.892;16.746;2023-12-07T05:10:52;88.20;;;43.80;;
37199;SDS011;23096;50.892;16.746;2023-12-07T05:13:17;88.50;;;42.70;;
37199;SDS011;23096;50.892;16.746;2023-12-07T05:15:43;89.70;;;43.50;;
37199;SDS011;23096;50.892;16.746;2023-12-07T05:18:09;86.10;;;43.40;;
37199;SDS011;23096;50.892;16.746;2023-12-07T05:20:35;87.00;;;41.10;;
37199;SDS011;23096;50.892;16.746;2023-12-07T05:23:04;81.10;;;41.40;;
37199;SDS011;23096;50.892;16.746;2023-12-07T05:25:30;80.80;;;41.40;;
37199;SDS011;23096;50.892;16.746;2023-12-07T05:27:57;81.80;;;42.60;;
37199;SDS011;23096;50.892;16.746;2023-12-07T05:30:23;75.90;;;38.90;;
37199;SDS011;23096;50.892;16.746;2023-12-07T05:32:48;86.80;;;42.60;;
37199;SDS011;23096;50.892;16.746;2023-12-07T05:35:14;78.30;;;39.10;;
37199;SDS011;23096;50.892;16.746;2023-12-07T05:37:39;76.00;;;38.50;;
37199;SDS011;23096;50.892;16.746;2023-12-07T05:40:05;78.10;;;39.30;;
37199;SDS011;23096;50.892;16.746;2023-12-07T05:42:31;79.00;;;39.90;;
37199;SDS011;23096;50.892;16.746;2023-12-07T05:44:57;82.40;;;41.30;;
37199;SDS011;23096;50.892;16.746;2023-12-07T05:47:23;80.20;;;38.40;;
37199;SDS011;23096;50.892;16.746;2023-12-07T05:49:48;81.50;;;39.30;;
37199;SDS011;23096;50.892;16.746;2023-12-07T05:52:14;69.10;;;37.10;;
37199;SDS011;23096;50.892;16.746;2023-12-07T05:54:39;79.30;;;38.10;;
37199;SDS011;23096;50.892;16.746;2023-12-07T05:57:07;72.90;;;37.00;;
37199;SDS011;23096;50.892;16.746;2023-12-07T05:59:36;72.60;;;36.80;;
37199;SDS011;23096;50.892;16.746;2023-12-07T06:02:03;74.10;;;37.30;;
37199;SDS011;23096;50.892;16.746;2023-12-07T06:04:29;68.90;;;35.30;;
37199;SDS011;23096;50.892;16.746;2023-12-07T06:06:55;71.60;;;36.70;;
37199;SDS011;23096;50.892;16.746;2023-12-07T06:09:21;65.30;;;33.10;;
37199;SDS011;23096;50.892;16.746;2023-12-07T06:11:46;60.60;;;32.50;;
37199;SDS011;23096;50.892;16.746;2023-12-07T06:14:12;58.70;;;28.30;;
37199;SDS011;23096;50.892;16.746;2023-12-07T06:16:38;57.20;;;30.40;;
37199;SDS011;23096;50.892;16.746;2023-12-07T06:19:03;54.70;;;28.00;;
37199;SDS011;23096;50.892;16.746;2023-12-07T06:21:29;55.00;;;28.50;;
37199;SDS011;23096;50.892;16.746;2023-12-07T06:23:55;52.00;;;26.90;;
37199;SDS011;23096;50.892;16.746;2023-12-07T06:26:21;46.50;;;25.50;;
37199;SDS011;23096;50.892;16.746;2023-12-07T06:28:47;42.50;;;24.00;;
37199;SDS011;23096;50.892;16.746;2023-12-07T06:31:12;46.20;;;24.10;;
37199;SDS011;23096;50.892;16.746;2023-12-07T06:33:40;38.30;;;22.40;;
37199;SDS011;23096;50.892;16.746;2023-12-07T06:36:05;47.90;;;23.60;;
37199;SDS011;23096;50.892;16.746;2023-12-07T06:38:31;37.00;;;22.70;;
37199;SDS011;23096;50.892;16.746;2023-12-07T06:40:57;35.10;;;21.70;;
37199;SDS011;23096;50.892;16.746;2023-12-07T06:43:23;35.60;;;21.80;;
37199;SDS011;23096;50.892;16.746;2023-12-07T06:45:48;36.20;;;20.20;;
37199;SDS011;23096;50.892;16.746;2023-12-07T06:48:14;35.70;;;21.30;;
37199;SDS011;23096;50.892;16.746;2023-12-07T06:50:39;33.00;;;20.20;;
37199;SDS011;23096;50.892;16.746;2023-12-07T06:53:05;35.10;;;20.80;;
37199;SDS011;23096;50.892;16.746;2023-12-07T06:55:30;32.20;;;19.00;;
37199;SDS011;23096;50.892;16.746;2023-12-07T06:57:56;35.00;;;20.10;;
37199;SDS011;23096;50.892;16.746;2023-12-07T07:00:22;32.70;;;20.40;;
37199;SDS011;23096;50.892;16.746;2023-12-07T07:02:49;34.20;;;21.60;;
37199;SDS011;23096;50.892;16.746;2023-12-07T07:05:15;33.80;;;21.40;;
37199;SDS011;23096;50.892;16.746;2023-12-07T07:07:41;32.40;;;20.10;;
37199;SDS011;23096;50.892;16.746;2023-12-07T07:10:06;37.40;;;21.50;;
37199;SDS011;23096;50.892;16.746;2023-12-07T07:12:35;33.40;;;21.00;;
37199;SDS011;23096;50.892;16.746;2023-12-07T07:15:01;41.70;;;23.60;;
37199;SDS011;23096;50.892;16.746;2023-12-07T07:17:26;67.70;;;33.80;;
37199;SDS011;23096;50.892;16.746;2023-12-07T07:19:54;76.00;;;37.90;;
37199;SDS011;23096;50.892;16.746;2023-12-07T07:22:20;95.30;;;45.40;;
37199;SDS011;23096;50.892;16.746;2023-12-07T07:24:47;147.00;;;65.10;;
37199;SDS011;23096;50.892;16.746;2023-12-07T07:27:12;160.40;;;73.10;;
37199;SDS011;23096;50.892;16.746;2023-12-07T07:29:38;109.80;;;54.80;;
37199;SDS011;23096;50.892;16.746;2023-12-07T07:32:04;68.10;;;32.50;;
37199;SDS011;23096;50.892;16.746;2023-12-07T07:34:30;64.20;;;31.70;;
37199;SDS011;23096;50.892;16.746;2023-12-07T07:36:55;49.00;;;25.40;;
37199;SDS011;23096;50.892;16.746;2023-12-07T07:39:21;74.10;;;40.30;;
37199;SDS011;23096;50.892;16.746;2023-12-07T07:41:46;70.80;;;38.00;;
37199;SDS011;23096;50.892;16.746;2023-12-07T07:44:12;67.90;;;34.90;;
37199;SDS011;23096;50.892;16.746;2023-12-07T07:46:37;64.50;;;31.80;;
37199;SDS011;23096;50.892;16.746;2023-12-07T07:49:05;55.20;;;29.90;;
37199;SDS011;23096;50.892;16.746;2023-12-07T07:51:31;33.20;;;21.00;;
37199;SDS011;23096;50.892;16.746;2023-12-07T07:53:58;50.00;;;25.30;;
37199;SDS011;23096;50.892;16.746;2023-12-07T07:56:24;55.20;;;25.20;;
37199;SDS011;23096;50.892;16.746;2023-12-07T07:58:50;42.70;;;24.40;;
37199;SDS011;23096;50.892;16.746;2023-12-07T08:01:15;43.50;;;23.50;;
37199;SDS011;23096;50.892;16.746;2023-12-07T08:03:41;42.40;;;22.50;;
37199;SDS011;23096;50.892;16.746;2023-12-07T08:06:06;43.70;;;22.00;;
37199;SDS011;23096;50.892;16.746;2023-12-07T08:08:32;45.00;;;23.90;;
37199;SDS011;23096;50.892;16.746;2023-12-07T08:10:58;37.60;;;21.70;;
37199;SDS011;23096;50.892;16.746;2023-12-07T08:13:23;39.00;;;22.90;;
37199;SDS011;23096;50.892;16.746;2023-12-07T08:15:49;40.60;;;21.30;;
37199;SDS011;23096;50.892;16.746;2023-12-07T08:18:14;33.50;;;20.10;;
37199;SDS011;23096;50.892;16.746;2023-12-07T08:20:40;29.30;;;19.20;;
37199;SDS011;23096;50.892;16.746;2023-12-07T08:23:05;29.90;;;19.00;;
37199;SDS011;23096;50.892;16.746;2023-12-07T08:25:31;33.70;;;20.20;;
37199;SDS011;23096;50.892;16.746;2023-12-07T08:27:57;32.60;;;21.20;;
37199;SDS011;23096;50.892;16.746;2023-12-07T08:30:22;30.20;;;19.20;;
37199;SDS011;23096;50.892;16.746;2023-12-07T08:32:48;38.30;;;22.40;;
37199;SDS011;23096;50.892;16.746;2023-12-07T08:35:14;43.20;;;24.40;;
37199;SDS011;23096;50.892;16.746;2023-12-07T08:37:39;59.30;;;27.20;;
37199;SDS011;23096;50.892;16.746;2023-12-07T08:40:05;63.00;;;29.80;;
37199;SDS011;23096;50.892;16.746;2023-12-07T08:42:31;48.00;;;24.40;;
37199;SDS011;23096;50.892;16.746;2023-12-07T08:44:57;39.60;;;24.40;;
37199;SDS011;23096;50.892;16.746;2023-12-07T08:47:23;42.10;;;25.00;;
37199;SDS011;23096;50.892;16.746;2023-12-07T08:49:48;45.10;;;25.10;;
37199;SDS011;23096;50.892;16.746;2023-12-07T08:52:16;45.00;;;27.20;;
37199;SDS011;23096;50.892;16.746;2023-12-07T08:54:43;35.40;;;24.30;;
37199;SDS011;23096;50.892;16.746;2023-12-07T08:57:08;35.70;;;24.90;;
37199;SDS011;23096;50.892;16.746;2023-12-07T08:59:34;37.10;;;23.90;;
37199;SDS011;23096;50.892;16.746;2023-12-07T09:01:59;38.60;;;23.80;;
37199;SDS011;23096;50.892;16.746;2023-12-07T09:04:25;30.80;;;20.60;;
37199;SDS011;23096;50.892;16.746;2023-12-07T09:06:50;36.10;;;23.00;;
37199;SDS011;23096;50.892;16.746;2023-12-07T09:09:16;30.80;;;21.80;;
37199;SDS011;23096;50.892;16.746;2023-12-07T09:11:42;31.00;;;20.10;;
37199;SDS011;23096;50.892;16.746;2023-12-07T09:14:08;30.10;;;21.20;;
37199;SDS011;23096;50.892;16.746;2023-12-07T09:16:34;27.90;;;19.60;;
37199;SDS011;23096;50.892;16.746;2023-12-07T09:19:00;26.90;;;20.00;;
37199;SDS011;23096;50.892;16.746;2023-12-07T09:21:25;28.80;;;19.10;;
37199;SDS011;23096;50.892;16.746;2023-12-07T09:23:51;28.90;;;19.80;;
37199;SDS011;23096;50.892;16.746;2023-12-07T09:26:17;30.90;;;20.90;;
37199;SDS011;23096;50.892;16.746;2023-12-07T09:28:43;37.30;;;23.20;;
37199;SDS011;23096;50.892;16.746;2023-12-07T09:31:08;34.30;;;22.80;;
37199;SDS011;23096;50.892;16.746;2023-12-07T09:33:34;31.90;;;21.20;;
37199;SDS011;23096;50.892;16.746;2023-12-07T09:35:59;33.60;;;23.80;;
37199;SDS011;23096;50.892;16.746;2023-12-07T09:38:25;34.50;;;24.00;;
37199;SDS011;23096;50.892;16.746;2023-12-07T09:40:53;40.50;;;26.70;;
37199;SDS011;23096;50.892;16.746;2023-12-07T09:43:19;38.10;;;25.10;;
37199;SDS011;23096;50.892;16.746;2023-12-07T09:45:45;35.60;;;24.30;;
37199;SDS011;23096;50.892;16.746;2023-12-07T09:48:10;35.70;;;24.20;;
37199;SDS011;23096;50.892;16.746;2023-12-07T09:50:36;39.80;;;25.60;;
37199;SDS011;23096;50.892;16.746;2023-12-07T09:53:02;36.00;;;23.80;;
37199;SDS011;23096;50.892;16.746;2023-12-07T09:55:28;37.70;;;26.00;;
37199;SDS011;23096;50.892;16.746;2023-12-07T09:57:53;39.00;;;25.80;;
37199;SDS011;23096;50.892;16.746;2023-12-07T10:00:22;32.40;;;22.20;;
37199;SDS011;23096;50.892;16.746;2023-12-07T10:02:47;42.00;;;26.70;;
37199;SDS011;23096;50.892;16.746;2023-12-07T10:05:14;35.20;;;23.40;;
37199;SDS011;23096;50.892;16.746;2023-12-07T10:07:42;43.40;;;31.20;;
37199;SDS011;23096;50.892;16.746;2023-12-07T10:10:09;33.30;;;24.60;;
37199;SDS011;23096;50.892;16.746;2023-12-07T10:12:40;31.70;;;22.10;;
37199;SDS011;23096;50.892;16.746;2023-12-07T10:15:20;32.30;;;20.20;;
37199;SDS011;23096;50.892;16.746;2023-12-07T10:17:48;28.30;;;18.80;;
37199;SDS011;23096;50.892;16.746;2023-12-07T10:20:18;28.40;;;19.20;;
37199;SDS011;23096;50.892;16.746;2023-12-07T10:22:49;24.10;;;17.10;;
37199;SDS011;23096;50.892;16.746;2023-12-07T10:25:29;24.80;;;18.30;;
37199;SDS011;23096;50.892;16.746;2023-12-07T10:27:55;40.90;;;26.10;;
37199;SDS011;23096;50.892;16.746;2023-12-07T10:30:20;35.80;;;23.10;;
37199;SDS011;23096;50.892;16.746;2023-12-07T10:32:51;33.30;;;23.40;;
37199;SDS011;23096;50.892;16.746;2023-12-07T10:35:17;45.40;;;28.50;;
37199;SDS011;23096;50.892;16.746;2023-12-07T10:37:44;85.10;;;46.00;;
37199;SDS011;23096;50.892;16.746;2023-12-07T10:40:12;86.50;;;52.00;;
37199;SDS011;23096;50.892;16.746;2023-12-07T10:42:37;59.90;;;39.50;;
37199;SDS011;23096;50.892;16.746;2023-12-07T10:45:06;44.00;;;31.70;;
37199;SDS011;23096;50.892;16.746;2023-12-07T10:47:37;39.00;;;28.10;;
37199;SDS011;23096;50.892;16.746;2023-12-07T10:50:07;28.80;;;20.70;;
37199;SDS011;23096;50.892;16.746;2023-12-07T10:52:37;33.70;;;21.50;;
37199;SDS011;23096;50.892;16.746;2023-12-07T10:55:13;30.40;;;21.00;;
37199;SDS011;23096;50.892;16.746;2023-12-07T10:57:43;24.50;;;17.10;;
37199;SDS011;23096;50.892;16.746;2023-12-07T11:00:09;26.50;;;18.30;;
37199;SDS011;23096;50.892;16.746;2023-12-07T11:02:36;29.50;;;19.30;;
37199;SDS011;23096;50.892;16.746;2023-12-07T11:05:04;27.10;;;18.60;;
37199;SDS011;23096;50.892;16.746;2023-12-07T11:07:52;30.80;;;19.80;;
37199;SDS011;23096;50.892;16.746;2023-12-07T11:10:30;109.80;;;71.20;;
37199;SDS011;23096;50.892;16.746;2023-12-07T11:13:20;61.60;;;41.80;;
37199;SDS011;23096;50.892;16.746;2023-12-07T11:15:49;91.10;;;64.20;;
37199;SDS011;23096;50.892;16.746;2023-12-07T11:18:15;62.30;;;47.90;;
37199;SDS011;23096;50.892;16.746;2023-12-07T11:20:42;46.30;;;34.40;;
37199;SDS011;23096;50.892;16.746;2023-12-07T11:23:10;44.00;;;34.80;;
37199;SDS011;23096;50.892;16.746;2023-12-07T11:25:39;38.30;;;27.60;;
37199;SDS011;23096;50.892;16.746;2023-12-07T11:28:05;44.30;;;29.80;;
37199;SDS011;23096;50.892;16.746;2023-12-07T11:30:34;105.60;;;58.70;;
37199;SDS011;23096;50.892;16.746;2023-12-07T11:33:04;92.50;;;50.30;;
37199;SDS011;23096;50.892;16.746;2023-12-07T11:35:31;135.70;;;68.50;;
37199;SDS011;23096;50.892;16.746;2023-12-07T11:38:01;122.90;;;65.10;;
37199;SDS011;23096;50.892;16.746;2023-12-07T11:40:31;133.30;;;71.80;;
37199;SDS011;23096;50.892;16.746;2023-12-07T11:42:59;107.10;;;61.20;;
37199;SDS011;23096;50.892;16.746;2023-12-07T11:48:09;51.70;;;36.10;;
37199;SDS011;23096;50.892;16.746;2023-12-07T11:50:36;87.60;;;62.20;;
37199;SDS011;23096;50.892;16.746;2023-12-07T11:53:22;49.60;;;34.50;;
37199;SDS011;23096;50.892;16.746;2023-12-07T11:55:49;38.00;;;29.50;;
37199;SDS011;23096;50.892;16.746;2023-12-07T11:58:15;38.00;;;27.50;;
37199;SDS011;23096;50.892;16.746;2023-12-07T12:00:41;34.60;;;24.40;;
37199;SDS011;23096;50.892;16.746;2023-12-07T12:03:08;36.30;;;25.80;;
37199;SDS011;23096;50.892;16.746;2023-12-07T12:05:33;31.40;;;23.10;;
37199;SDS011;23096;50.892;16.746;2023-12-07T12:07:59;33.50;;;24.20;;
37199;SDS011;23096;50.892;16.746;2023-12-07T12:10:25;30.30;;;21.70;;
37199;SDS011;23096;50.892;16.746;2023-12-07T12:12:51;31.40;;;22.10;;
37199;SDS011;23096;50.892;16.746;2023-12-07T12:15:18;30.30;;;21.70;;
37199;SDS011;23096;50.892;16.746;2023-12-07T12:17:45;35.40;;;22.70;;
37199;SDS011;23096;50.892;16.746;2023-12-07T12:20:11;31.50;;;21.80;;
37199;SDS011;23096;50.892;16.746;2023-12-07T12:22:43;36.70;;;20.80;;
37199;SDS011;23096;50.892;16.746;2023-12-07T12:25:08;32.10;;;21.70;;
37199;SDS011;23096;50.892;16.746;2023-12-07T12:27:35;32.30;;;22.40;;
37199;SDS011;23096;50.892;16.746;2023-12-07T12:30:01;34.10;;;19.50;;
37199;SDS011;23096;50.892;16.746;2023-12-07T12:32:27;32.00;;;21.20;;
37199;SDS011;23096;50.892;16.746;2023-12-07T12:34:53;36.40;;;24.10;;
37199;SDS011;23096;50.892;16.746;2023-12-07T12:37:18;33.20;;;21.70;;
37199;SDS011;23096;50.892;16.746;2023-12-07T12:39:44;36.20;;;23.20;;
37199;SDS011;23096;50.892;16.746;2023-12-07T12:42:09;34.20;;;22.40;;
37199;SDS011;23096;50.892;16.746;2023-12-07T12:44:37;32.80;;;21.30;;
37199;SDS011;23096;50.892;16.746;2023-12-07T12:47:07;27.50;;;20.20;;
37199;SDS011;23096;50.892;16.746;2023-12-07T12:49:39;30.40;;;21.20;;
37199;SDS011;23096;50.892;16.746;2023-12-07T12:52:04;32.30;;;20.10;;
37199;SDS011;23096;50.892;16.746;2023-12-07T12:54:35;29.20;;;20.70;;
37199;SDS011;23096;50.892;16.746;2023-12-07T12:57:01;31.90;;;20.40;;
37199;SDS011;23096;50.892;16.746;2023-12-07T12:59:27;33.60;;;20.90;;
37199;SDS011;23096;50.892;16.746;2023-12-07T13:01:52;42.40;;;27.00;;
37199;SDS011;23096;50.892;16.746;2023-12-07T13:04:18;80.30;;;53.20;;
37199;SDS011;23096;50.892;16.746;2023-12-07T13:06:45;50.10;;;32.00;;
37199;SDS011;23096;50.892;16.746;2023-12-07T13:09:10;52.90;;;34.10;;
37199;SDS011;23096;50.892;16.746;2023-12-07T13:11:36;86.00;;;52.00;;
37199;SDS011;23096;50.892;16.746;2023-12-07T13:14:01;61.20;;;34.90;;
37199;SDS011;23096;50.892;16.746;2023-12-07T13:16:32;67.50;;;37.50;;
37199;SDS011;23096;50.892;16.746;2023-12-07T13:18:57;71.30;;;42.60;;
37199;SDS011;23096;50.892;16.746;2023-12-07T13:21:23;58.20;;;38.20;;
37199;SDS011;23096;50.892;16.746;2023-12-07T13:23:48;55.60;;;34.00;;
37199;SDS011;23096;50.892;16.746;2023-12-07T13:26:14;53.10;;;32.60;;
37199;SDS011;23096;50.892;16.746;2023-12-07T13:28:39;57.40;;;33.50;;
37199;SDS011;23096;50.892;16.746;2023-12-07T13:31:05;58.60;;;35.10;;
37199;SDS011;23096;50.892;16.746;2023-12-07T13:33:31;71.30;;;42.70;;
37199;SDS011;23096;50.892;16.746;2023-12-07T13:35:57;70.20;;;41.40;;
37199;SDS011;23096;50.892;16.746;2023-12-07T13:38:22;80.10;;;46.10;;
37199;SDS011;23096;50.892;16.746;2023-12-07T13:40:48;78.80;;;41.30;;
37199;SDS011;23096;50.892;16.746;2023-12-07T13:43:14;67.40;;;38.00;;
37199;SDS011;23096;50.892;16.746;2023-12-07T13:45:43;78.30;;;43.80;;
37199;SDS011;23096;50.892;16.746;2023-12-07T13:48:09;112.90;;;62.10;;
37199;SDS011;23096;50.892;16.746;2023-12-07T13:50:34;94.30;;;50.60;;
37199;SDS011;23096;50.892;16.746;2023-12-07T13:53:01;105.60;;;55.10;;
37199;SDS011;23096;50.892;16.746;2023-12-07T13:55:27;92.40;;;49.00;;
37199;SDS011;23096;50.892;16.746;2023-12-07T13:57:52;111.00;;;61.80;;
37199;SDS011;23096;50.892;16.746;2023-12-07T14:00:19;100.30;;;54.70;;
37199;SDS011;23096;50.892;16.746;2023-12-07T14:02:45;86.50;;;50.00;;